sensor_id;sensor_type;location;lat;lon;timestamp;P1;durP1;ratioP1;P2;durP2;ratioP2
68379;SDS011;57711;53.196;19.638;2023-05-10T00:01:08;9.90;;;5.00;;
68379;SDS011;57711;53.196;19.638;2023-05-10T00:03:35;10.40;;;5.30;;
68379;SDS011;57711;53.196;19.638;2023-05-10T00:06:03;11.00;;;5.10;;
68379;SDS011;57711;53.196;19.638;2023-05-10T00:08:30;13.70;;;5.50;;
68379;SDS011;57711;53.196;19.638;2023-05-10T00:10:57;9.40;;;5.20;;
68379;SDS011;57711;53.196;19.638;2023-05-10T00:13:24;10.30;;;5.90;;
68379;SDS011;57711;53.196;19.638;2023-05-10T00:15:52;10.40;;;5.40;;
68379;SDS011;57711;53.196;19.638;2023-05-10T00:18:19;9.20;;;5.20;;
68379;SDS011;57711;53.196;19.638;2023-05-10T00:20:46;10.10;;;5.40;;
68379;SDS011;57711;53.196;19.638;2023-05-10T00:23:13;7.60;;;4.40;;
68379;SDS011;57711;53.196;19.638;2023-05-10T00:25:40;10.60;;;5.30;;
68379;SDS011;57711;53.196;19.638;2023-05-10T00:28:07;7.10;;;4.70;;
68379;SDS011;57711;53.196;19.638;2023-05-10T00:30:36;7.20;;;5.00;;
68379;SDS011;57711;53.196;19.638;2023-05-10T00:33:03;8.70;;;4.90;;
68379;SDS011;57711;53.196;19.638;2023-05-10T00:35:31;12.00;;;6.20;;
68379;SDS011;57711;53.196;19.638;2023-05-10T00:37:58;11.50;;;5.20;;
68379;SDS011;57711;53.196;19.638;2023-05-10T00:40:25;11.10;;;5.00;;
68379;SDS011;57711;53.196;19.638;2023-05-10T00:42:56;12.30;;;5.90;;
68379;SDS011;57711;53.196;19.638;2023-05-10T00:45:23;11.00;;;5.10;;
68379;SDS011;57711;53.196;19.638;2023-05-10T00:47:51;12.70;;;5.50;;
68379;SDS011;57711;53.196;19.638;2023-05-10T00:50:22;18.00;;;6.60;;
68379;SDS011;57711;53.196;19.638;2023-05-10T00:52:50;11.60;;;5.90;;
68379;SDS011;57711;53.196;19.638;2023-05-10T00:55:17;10.90;;;6.30;;
68379;SDS011;57711;53.196;19.638;2023-05-10T00:57:45;12.20;;;5.90;;
68379;SDS011;57711;53.196;19.638;2023-05-10T01:00:12;14.30;;;6.50;;
68379;SDS011;57711;53.196;19.638;2023-05-10T01:02:45;13.20;;;6.00;;
68379;SDS011;57711;53.196;19.638;2023-05-10T01:05:13;13.50;;;5.00;;
68379;SDS011;57711;53.196;19.638;2023-05-10T01:07:40;11.20;;;5.90;;
68379;SDS011;57711;53.196;19.638;2023-05-10T01:10:09;13.00;;;6.60;;
68379;SDS011;57711;53.196;19.638;2023-05-10T01:12:38;20.60;;;7.10;;
68379;SDS011;57711;53.196;19.638;2023-05-10T01:15:07;12.60;;;6.00;;
68379;SDS011;57711;53.196;19.638;2023-05-10T01:17:35;12.00;;;6.20;;
68379;SDS011;57711;53.196;19.638;2023-05-10T01:20:07;12.60;;;6.80;;
68379;SDS011;57711;53.196;19.638;2023-05-10T01:31:38;10.70;;;6.60;;
68379;SDS011;57711;53.196;19.638;2023-05-10T01:34:27;44.80;;;24.00;;
68379;SDS011;57711;53.196;19.638;2023-05-10T01:37:11;25.50;;;13.60;;
68379;SDS011;57711;53.196;19.638;2023-05-10T01:40:03;12.40;;;6.70;;
68379;SDS011;57711;53.196;19.638;2023-05-10T01:42:47;11.00;;;5.80;;
68379;SDS011;57711;53.196;19.638;2023-05-10T01:48:03;10.40;;;5.40;;
68379;SDS011;57711;53.196;19.638;2023-05-10T01:50:34;7.70;;;5.20;;
68379;SDS011;57711;53.196;19.638;2023-05-10T01:53:06;11.40;;;5.30;;
68379;SDS011;57711;53.196;19.638;2023-05-10T01:55:36;10.80;;;5.70;;
68379;SDS011;57711;53.196;19.638;2023-05-10T01:58:11;13.00;;;6.60;;
68379;SDS011;57711;53.196;19.638;2023-05-10T02:00:44;14.30;;;7.40;;
68379;SDS011;57711;53.196;19.638;2023-05-10T02:03:14;18.30;;;6.30;;
68379;SDS011;57711;53.196;19.638;2023-05-10T02:05:43;13.80;;;6.20;;
68379;SDS011;57711;53.196;19.638;2023-05-10T02:08:12;12.10;;;5.80;;
68379;SDS011;57711;53.196;19.638;2023-05-10T02:10:41;13.20;;;6.30;;
68379;SDS011;57711;53.196;19.638;2023-05-10T02:13:11;15.30;;;6.60;;
68379;SDS011;57711;53.196;19.638;2023-05-10T02:15:40;12.90;;;6.00;;
68379;SDS011;57711;53.196;19.638;2023-05-10T02:18:11;14.60;;;6.10;;
68379;SDS011;57711;53.196;19.638;2023-05-10T02:20:39;14.10;;;6.40;;
68379;SDS011;57711;53.196;19.638;2023-05-10T02:23:07;12.60;;;5.70;;
68379;SDS011;57711;53.196;19.638;2023-05-10T02:25:35;12.70;;;6.50;;
68379;SDS011;57711;53.196;19.638;2023-05-10T02:28:05;13.70;;;6.20;;
68379;SDS011;57711;53.196;19.638;2023-05-10T02:30:35;16.90;;;7.90;;
68379;SDS011;57711;53.196;19.638;2023-05-10T02:33:04;17.10;;;6.80;;
68379;SDS011;57711;53.196;19.638;2023-05-10T02:35:32;17.30;;;7.30;;
68379;SDS011;57711;53.196;19.638;2023-05-10T02:38:01;17.50;;;7.40;;
68379;SDS011;57711;53.196;19.638;2023-05-10T02:40:29;14.30;;;7.10;;
68379;SDS011;57711;53.196;19.638;2023-05-10T02:42:57;13.30;;;6.90;;
68379;SDS011;57711;53.196;19.638;2023-05-10T02:45:27;13.50;;;5.70;;
68379;SDS011;57711;53.196;19.638;2023-05-10T02:47:58;11.90;;;5.60;;
68379;SDS011;57711;53.196;19.638;2023-05-10T02:50:27;11.60;;;5.70;;
68379;SDS011;57711;53.196;19.638;2023-05-10T02:52:56;18.20;;;5.20;;
68379;SDS011;57711;53.196;19.638;2023-05-10T02:55:31;10.90;;;6.00;;
68379;SDS011;57711;53.196;19.638;2023-05-10T02:58:03;12.60;;;7.10;;
68379;SDS011;57711;53.196;19.638;2023-05-10T03:00:31;10.90;;;6.40;;
68379;SDS011;57711;53.196;19.638;2023-05-10T03:02:58;12.10;;;5.50;;
68379;SDS011;57711;53.196;19.638;2023-05-10T03:05:26;15.50;;;6.40;;
68379;SDS011;57711;53.196;19.638;2023-05-10T03:07:53;15.80;;;6.30;;
68379;SDS011;57711;53.196;19.638;2023-05-10T03:10:22;8.90;;;5.60;;
68379;SDS011;57711;53.196;19.638;2023-05-10T03:12:57;13.70;;;5.90;;
68379;SDS011;57711;53.196;19.638;2023-05-10T03:18:06;11.20;;;5.10;;
68379;SDS011;57711;53.196;19.638;2023-05-10T03:20:41;14.00;;;6.80;;
68379;SDS011;57711;53.196;19.638;2023-05-10T03:23:15;13.00;;;5.70;;
68379;SDS011;57711;53.196;19.638;2023-05-10T03:25:49;13.90;;;6.10;;
68379;SDS011;57711;53.196;19.638;2023-05-10T03:28:18;11.60;;;5.80;;
68379;SDS011;57711;53.196;19.638;2023-05-10T03:30:46;12.70;;;5.70;;
68379;SDS011;57711;53.196;19.638;2023-05-10T03:33:13;11.50;;;5.50;;
68379;SDS011;57711;53.196;19.638;2023-05-10T03:35:43;17.30;;;5.40;;
68379;SDS011;57711;53.196;19.638;2023-05-10T03:38:12;19.70;;;5.50;;
68379;SDS011;57711;53.196;19.638;2023-05-10T03:40:40;9.80;;;5.30;;
68379;SDS011;57711;53.196;19.638;2023-05-10T03:43:07;11.70;;;5.80;;
68379;SDS011;57711;53.196;19.638;2023-05-10T03:45:34;14.50;;;5.50;;
68379;SDS011;57711;53.196;19.638;2023-05-10T03:48:02;16.30;;;5.70;;
68379;SDS011;57711;53.196;19.638;2023-05-10T03:50:29;7.40;;;4.80;;
68379;SDS011;57711;53.196;19.638;2023-05-10T03:52:57;10.10;;;5.20;;
68379;SDS011;57711;53.196;19.638;2023-05-10T03:55:24;9.10;;;5.00;;
68379;SDS011;57711;53.196;19.638;2023-05-10T03:57:51;12.80;;;5.10;;
68379;SDS011;57711;53.196;19.638;2023-05-10T04:00:21;9.00;;;5.20;;
68379;SDS011;57711;53.196;19.638;2023-05-10T04:02:49;12.10;;;6.50;;
68379;SDS011;57711;53.196;19.638;2023-05-10T04:05:18;13.30;;;5.20;;
68379;SDS011;57711;53.196;19.638;2023-05-10T04:07:45;10.20;;;5.30;;
68379;SDS011;57711;53.196;19.638;2023-05-10T04:10:13;13.90;;;5.30;;
68379;SDS011;57711;53.196;19.638;2023-05-10T04:12:41;10.70;;;5.80;;
68379;SDS011;57711;53.196;19.638;2023-05-10T04:15:09;13.70;;;5.00;;
68379;SDS011;57711;53.196;19.638;2023-05-10T04:17:36;10.70;;;5.30;;
68379;SDS011;57711;53.196;19.638;2023-05-10T04:20:04;16.00;;;6.00;;
68379;SDS011;57711;53.196;19.638;2023-05-10T04:22:32;12.30;;;6.40;;
68379;SDS011;57711;53.196;19.638;2023-05-10T04:24:59;15.10;;;7.50;;
68379;SDS011;57711;53.196;19.638;2023-05-10T04:27:26;16.20;;;6.30;;
68379;SDS011;57711;53.196;19.638;2023-05-10T04:29:53;18.30;;;6.30;;
68379;SDS011;57711;53.196;19.638;2023-05-10T04:32:20;17.70;;;6.00;;
68379;SDS011;57711;53.196;19.638;2023-05-10T04:34:48;17.00;;;6.70;;
68379;SDS011;57711;53.196;19.638;2023-05-10T04:37:15;21.80;;;9.90;;
68379;SDS011;57711;53.196;19.638;2023-05-10T04:39:42;18.40;;;7.40;;
68379;SDS011;57711;53.196;19.638;2023-05-10T04:42:10;11.50;;;5.70;;
68379;SDS011;57711;53.196;19.638;2023-05-10T04:44:38;10.90;;;5.90;;
68379;SDS011;57711;53.196;19.638;2023-05-10T04:47:05;10.90;;;5.10;;
68379;SDS011;57711;53.196;19.638;2023-05-10T04:49:32;14.50;;;6.20;;
68379;SDS011;57711;53.196;19.638;2023-05-10T04:51:59;17.80;;;5.30;;
68379;SDS011;57711;53.196;19.638;2023-05-10T04:54:26;17.60;;;7.40;;
68379;SDS011;57711;53.196;19.638;2023-05-10T04:56:53;37.60;;;23.30;;
68379;SDS011;57711;53.196;19.638;2023-05-10T04:59:20;16.30;;;7.70;;
68379;SDS011;57711;53.196;19.638;2023-05-10T05:01:47;17.60;;;5.90;;
68379;SDS011;57711;53.196;19.638;2023-05-10T05:04:15;10.90;;;5.50;;
68379;SDS011;57711;53.196;19.638;2023-05-10T05:06:42;10.60;;;5.30;;
68379;SDS011;57711;53.196;19.638;2023-05-10T05:09:09;13.20;;;6.50;;
68379;SDS011;57711;53.196;19.638;2023-05-10T05:11:36;20.70;;;6.40;;
68379;SDS011;57711;53.196;19.638;2023-05-10T05:14:03;16.10;;;6.90;;
68379;SDS011;57711;53.196;19.638;2023-05-10T05:16:30;10.50;;;5.40;;
68379;SDS011;57711;53.196;19.638;2023-05-10T05:18:59;12.60;;;6.00;;
68379;SDS011;57711;53.196;19.638;2023-05-10T05:21:26;13.40;;;5.50;;
68379;SDS011;57711;53.196;19.638;2023-05-10T05:23:53;10.20;;;5.30;;
68379;SDS011;57711;53.196;19.638;2023-05-10T05:26:20;18.40;;;5.40;;
68379;SDS011;57711;53.196;19.638;2023-05-10T05:28:48;15.20;;;5.80;;
68379;SDS011;57711;53.196;19.638;2023-05-10T05:31:16;16.70;;;8.50;;
68379;SDS011;57711;53.196;19.638;2023-05-10T05:33:44;11.40;;;5.60;;
68379;SDS011;57711;53.196;19.638;2023-05-10T05:36:11;12.80;;;5.30;;
68379;SDS011;57711;53.196;19.638;2023-05-10T05:38:38;15.30;;;5.30;;
68379;SDS011;57711;53.196;19.638;2023-05-10T05:41:06;10.60;;;4.80;;
68379;SDS011;57711;53.196;19.638;2023-05-10T05:43:33;13.10;;;6.00;;
68379;SDS011;57711;53.196;19.638;2023-05-10T05:46:03;11.10;;;4.90;;
68379;SDS011;57711;53.196;19.638;2023-05-10T05:48:31;15.90;;;5.70;;
68379;SDS011;57711;53.196;19.638;2023-05-10T05:50:58;19.40;;;5.30;;
68379;SDS011;57711;53.196;19.638;2023-05-10T05:53:25;12.00;;;5.40;;
68379;SDS011;57711;53.196;19.638;2023-05-10T05:55:53;25.30;;;6.70;;
68379;SDS011;57711;53.196;19.638;2023-05-10T05:58:22;12.80;;;4.50;;
68379;SDS011;57711;53.196;19.638;2023-05-10T06:00:49;16.60;;;6.00;;
68379;SDS011;57711;53.196;19.638;2023-05-10T06:03:17;8.70;;;4.00;;
68379;SDS011;57711;53.196;19.638;2023-05-10T06:05:45;11.40;;;4.90;;
68379;SDS011;57711;53.196;19.638;2023-05-10T06:08:13;16.20;;;5.10;;
68379;SDS011;57711;53.196;19.638;2023-05-10T06:10:40;14.10;;;4.80;;
68379;SDS011;57711;53.196;19.638;2023-05-10T06:13:07;14.70;;;4.30;;
68379;SDS011;57711;53.196;19.638;2023-05-10T06:15:34;10.80;;;4.20;;
68379;SDS011;57711;53.196;19.638;2023-05-10T06:18:01;19.50;;;5.70;;
68379;SDS011;57711;53.196;19.638;2023-05-10T06:20:28;13.90;;;3.60;;
68379;SDS011;57711;53.196;19.638;2023-05-10T06:22:58;11.70;;;4.30;;
68379;SDS011;57711;53.196;19.638;2023-05-10T06:25:25;15.80;;;4.10;;
68379;SDS011;57711;53.196;19.638;2023-05-10T06:27:52;13.70;;;4.60;;
68379;SDS011;57711;53.196;19.638;2023-05-10T06:30:24;14.60;;;5.30;;
68379;SDS011;57711;53.196;19.638;2023-05-10T06:32:54;11.20;;;4.00;;
68379;SDS011;57711;53.196;19.638;2023-05-10T06:35:22;8.20;;;3.70;;
68379;SDS011;57711;53.196;19.638;2023-05-10T06:37:49;21.20;;;4.00;;
68379;SDS011;57711;53.196;19.638;2023-05-10T06:40:17;15.70;;;3.50;;
68379;SDS011;57711;53.196;19.638;2023-05-10T06:42:45;7.00;;;3.90;;
68379;SDS011;57711;53.196;19.638;2023-05-10T06:45:13;32.40;;;4.10;;
68379;SDS011;57711;53.196;19.638;2023-05-10T06:47:42;15.30;;;3.80;;
68379;SDS011;57711;53.196;19.638;2023-05-10T06:50:09;10.30;;;3.40;;
68379;SDS011;57711;53.196;19.638;2023-05-10T06:52:38;7.20;;;3.20;;
68379;SDS011;57711;53.196;19.638;2023-05-10T06:55:05;20.40;;;4.00;;
68379;SDS011;57711;53.196;19.638;2023-05-10T06:57:33;6.20;;;2.70;;
68379;SDS011;57711;53.196;19.638;2023-05-10T07:00:00;10.90;;;2.80;;
68379;SDS011;57711;53.196;19.638;2023-05-10T07:02:30;5.60;;;3.00;;
68379;SDS011;57711;53.196;19.638;2023-05-10T07:04:58;6.10;;;3.20;;
68379;SDS011;57711;53.196;19.638;2023-05-10T07:07:29;9.80;;;4.40;;
68379;SDS011;57711;53.196;19.638;2023-05-10T07:09:56;11.70;;;3.40;;
68379;SDS011;57711;53.196;19.638;2023-05-10T07:12:24;10.40;;;4.50;;
68379;SDS011;57711;53.196;19.638;2023-05-10T07:14:52;12.70;;;4.30;;
68379;SDS011;57711;53.196;19.638;2023-05-10T07:17:19;16.70;;;3.50;;
68379;SDS011;57711;53.196;19.638;2023-05-10T07:19:46;13.00;;;3.30;;
68379;SDS011;57711;53.196;19.638;2023-05-10T07:22:14;7.00;;;2.90;;
68379;SDS011;57711;53.196;19.638;2023-05-10T07:24:43;8.10;;;3.40;;
68379;SDS011;57711;53.196;19.638;2023-05-10T07:27:10;11.80;;;3.10;;
68379;SDS011;57711;53.196;19.638;2023-05-10T07:29:37;11.40;;;4.50;;
68379;SDS011;57711;53.196;19.638;2023-05-10T07:32:05;11.00;;;4.30;;
68379;SDS011;57711;53.196;19.638;2023-05-10T07:34:33;10.50;;;3.10;;
68379;SDS011;57711;53.196;19.638;2023-05-10T07:37:00;9.50;;;3.00;;
68379;SDS011;57711;53.196;19.638;2023-05-10T07:39:27;18.40;;;3.10;;
68379;SDS011;57711;53.196;19.638;2023-05-10T07:41:54;8.70;;;2.90;;
68379;SDS011;57711;53.196;19.638;2023-05-10T07:44:22;9.20;;;3.20;;
68379;SDS011;57711;53.196;19.638;2023-05-10T07:46:50;10.70;;;3.40;;
68379;SDS011;57711;53.196;19.638;2023-05-10T07:49:17;8.70;;;3.80;;
68379;SDS011;57711;53.196;19.638;2023-05-10T07:51:44;12.00;;;3.40;;
68379;SDS011;57711;53.196;19.638;2023-05-10T07:54:12;11.90;;;2.90;;
68379;SDS011;57711;53.196;19.638;2023-05-10T07:56:39;5.60;;;2.40;;
68379;SDS011;57711;53.196;19.638;2023-05-10T07:59:14;7.90;;;2.20;;
68379;SDS011;57711;53.196;19.638;2023-05-10T08:01:42;9.80;;;2.50;;
68379;SDS011;57711;53.196;19.638;2023-05-10T08:04:09;15.90;;;2.40;;
68379;SDS011;57711;53.196;19.638;2023-05-10T08:06:38;6.40;;;2.50;;
68379;SDS011;57711;53.196;19.638;2023-05-10T08:09:06;44.40;;;7.60;;
68379;SDS011;57711;53.196;19.638;2023-05-10T08:11:33;14.00;;;2.80;;
68379;SDS011;57711;53.196;19.638;2023-05-10T08:14:01;13.00;;;2.90;;
68379;SDS011;57711;53.196;19.638;2023-05-10T08:16:28;8.80;;;4.10;;
68379;SDS011;57711;53.196;19.638;2023-05-10T08:18:55;13.00;;;5.20;;
68379;SDS011;57711;53.196;19.638;2023-05-10T08:21:23;10.20;;;3.10;;
68379;SDS011;57711;53.196;19.638;2023-05-10T08:23:50;11.10;;;2.70;;
68379;SDS011;57711;53.196;19.638;2023-05-10T08:26:17;12.60;;;2.90;;
68379;SDS011;57711;53.196;19.638;2023-05-10T08:28:44;8.10;;;2.20;;
68379;SDS011;57711;53.196;19.638;2023-05-10T08:31:11;13.90;;;2.80;;
68379;SDS011;57711;53.196;19.638;2023-05-10T08:33:39;12.20;;;2.40;;
68379;SDS011;57711;53.196;19.638;2023-05-10T08:36:08;11.70;;;2.90;;
68379;SDS011;57711;53.196;19.638;2023-05-10T08:38:35;11.00;;;3.00;;
68379;SDS011;57711;53.196;19.638;2023-05-10T08:41:04;11.40;;;3.60;;
68379;SDS011;57711;53.196;19.638;2023-05-10T08:43:32;25.40;;;4.70;;
68379;SDS011;57711;53.196;19.638;2023-05-10T08:46:02;15.30;;;3.50;;
68379;SDS011;57711;53.196;19.638;2023-05-10T08:48:34;32.70;;;3.60;;
68379;SDS011;57711;53.196;19.638;2023-05-10T08:51:02;9.70;;;3.50;;
68379;SDS011;57711;53.196;19.638;2023-05-10T08:53:31;19.10;;;3.30;;
68379;SDS011;57711;53.196;19.638;2023-05-10T08:56:02;13.30;;;2.90;;
68379;SDS011;57711;53.196;19.638;2023-05-10T08:58:29;11.70;;;3.90;;
68379;SDS011;57711;53.196;19.638;2023-05-10T09:00:57;10.30;;;2.20;;
68379;SDS011;57711;53.196;19.638;2023-05-10T09:03:26;11.20;;;2.70;;
68379;SDS011;57711;53.196;19.638;2023-05-10T09:05:53;11.00;;;2.70;;
68379;SDS011;57711;53.196;19.638;2023-05-10T09:08:25;10.20;;;2.60;;
68379;SDS011;57711;53.196;19.638;2023-05-10T09:10:56;12.20;;;2.40;;
68379;SDS011;57711;53.196;19.638;2023-05-10T09:13:24;8.40;;;1.80;;
68379;SDS011;57711;53.196;19.638;2023-05-10T09:15:51;6.30;;;1.90;;
68379;SDS011;57711;53.196;19.638;2023-05-10T09:18:19;9.40;;;3.30;;
68379;SDS011;57711;53.196;19.638;2023-05-10T09:20:48;9.00;;;2.50;;
68379;SDS011;57711;53.196;19.638;2023-05-10T09:23:15;14.20;;;2.50;;
68379;SDS011;57711;53.196;19.638;2023-05-10T09:25:42;7.70;;;2.40;;
68379;SDS011;57711;53.196;19.638;2023-05-10T09:28:09;21.40;;;2.90;;
68379;SDS011;57711;53.196;19.638;2023-05-10T09:30:37;13.30;;;3.20;;
68379;SDS011;57711;53.196;19.638;2023-05-10T09:33:05;13.90;;;2.10;;
68379;SDS011;57711;53.196;19.638;2023-05-10T09:35:32;14.40;;;2.80;;
68379;SDS011;57711;53.196;19.638;2023-05-10T09:38:02;14.00;;;2.80;;
68379;SDS011;57711;53.196;19.638;2023-05-10T09:40:31;11.70;;;4.00;;
68379;SDS011;57711;53.196;19.638;2023-05-10T09:43:04;9.60;;;3.10;;
68379;SDS011;57711;53.196;19.638;2023-05-10T09:45:34;8.70;;;4.50;;
68379;SDS011;57711;53.196;19.638;2023-05-10T09:48:04;8.20;;;2.60;;
68379;SDS011;57711;53.196;19.638;2023-05-10T09:50:33;16.00;;;2.60;;
68379;SDS011;57711;53.196;19.638;2023-05-10T09:53:01;11.30;;;2.40;;
68379;SDS011;57711;53.196;19.638;2023-05-10T09:55:40;6.50;;;2.60;;
68379;SDS011;57711;53.196;19.638;2023-05-10T09:58:12;15.00;;;2.20;;
68379;SDS011;57711;53.196;19.638;2023-05-10T10:00:40;9.30;;;2.30;;
68379;SDS011;57711;53.196;19.638;2023-05-10T10:03:12;16.60;;;2.70;;
68379;SDS011;57711;53.196;19.638;2023-05-10T10:05:41;9.30;;;2.60;;
68379;SDS011;57711;53.196;19.638;2023-05-10T10:08:10;7.40;;;2.70;;
68379;SDS011;57711;53.196;19.638;2023-05-10T10:10:39;8.60;;;2.70;;
68379;SDS011;57711;53.196;19.638;2023-05-10T10:13:07;11.80;;;2.70;;
68379;SDS011;57711;53.196;19.638;2023-05-10T10:15:35;36.90;;;3.70;;
68379;SDS011;57711;53.196;19.638;2023-05-10T10:18:02;8.90;;;2.40;;
68379;SDS011;57711;53.196;19.638;2023-05-10T10:20:31;8.70;;;2.50;;
68379;SDS011;57711;53.196;19.638;2023-05-10T10:22:59;14.80;;;2.30;;
68379;SDS011;57711;53.196;19.638;2023-05-10T10:25:26;7.00;;;2.80;;
68379;SDS011;57711;53.196;19.638;2023-05-10T10:36:21;10.50;;;2.90;;
68379;SDS011;57711;53.196;19.638;2023-05-10T10:41:34;11.80;;;3.10;;
68379;SDS011;57711;53.196;19.638;2023-05-10T10:49:43;9.80;;;2.20;;
68379;SDS011;57711;53.196;19.638;2023-05-10T10:52:36;11.40;;;4.60;;
68379;SDS011;57711;53.196;19.638;2023-05-10T10:57:42;28.70;;;7.80;;
68379;SDS011;57711;53.196;19.638;2023-05-10T11:02:59;7.60;;;3.10;;
68379;SDS011;57711;53.196;19.638;2023-05-10T11:07:59;11.90;;;4.80;;
68379;SDS011;57711;53.196;19.638;2023-05-10T11:10:33;9.70;;;3.20;;
68379;SDS011;57711;53.196;19.638;2023-05-10T11:13:00;9.60;;;3.10;;
68379;SDS011;57711;53.196;19.638;2023-05-10T11:15:33;12.50;;;5.40;;
68379;SDS011;57711;53.196;19.638;2023-05-10T11:18:18;14.20;;;4.50;;
68379;SDS011;57711;53.196;19.638;2023-05-10T11:20:51;8.50;;;3.00;;
68379;SDS011;57711;53.196;19.638;2023-05-10T11:23:19;12.50;;;3.00;;
68379;SDS011;57711;53.196;19.638;2023-05-10T11:25:48;14.40;;;4.10;;
68379;SDS011;57711;53.196;19.638;2023-05-10T11:28:17;15.90;;;3.80;;
68379;SDS011;57711;53.196;19.638;2023-05-10T11:30:46;8.40;;;2.40;;
68379;SDS011;57711;53.196;19.638;2023-05-10T11:33:17;5.10;;;2.20;;
68379;SDS011;57711;53.196;19.638;2023-05-10T11:35:46;7.10;;;2.70;;
68379;SDS011;57711;53.196;19.638;2023-05-10T11:38:13;11.70;;;2.50;;
68379;SDS011;57711;53.196;19.638;2023-05-10T11:40:40;11.00;;;3.20;;
68379;SDS011;57711;53.196;19.638;2023-05-10T11:43:08;14.50;;;2.80;;
68379;SDS011;57711;53.196;19.638;2023-05-10T11:45:37;5.50;;;2.00;;
68379;SDS011;57711;53.196;19.638;2023-05-10T11:48:04;10.40;;;3.30;;
68379;SDS011;57711;53.196;19.638;2023-05-10T11:50:32;10.70;;;3.10;;
68379;SDS011;57711;53.196;19.638;2023-05-10T11:52:59;8.20;;;3.20;;
68379;SDS011;57711;53.196;19.638;2023-05-10T11:55:27;11.40;;;2.80;;
68379;SDS011;57711;53.196;19.638;2023-05-10T11:57:54;4.30;;;2.20;;
68379;SDS011;57711;53.196;19.638;2023-05-10T12:00:21;8.30;;;1.80;;
68379;SDS011;57711;53.196;19.638;2023-05-10T12:02:48;8.50;;;2.50;;
68379;SDS011;57711;53.196;19.638;2023-05-10T12:05:16;6.60;;;2.10;;
68379;SDS011;57711;53.196;19.638;2023-05-10T12:07:44;6.10;;;1.70;;
68379;SDS011;57711;53.196;19.638;2023-05-10T12:10:12;20.80;;;2.50;;
68379;SDS011;57711;53.196;19.638;2023-05-10T12:12:45;11.60;;;2.40;;
68379;SDS011;57711;53.196;19.638;2023-05-10T12:15:20;8.40;;;2.10;;
68379;SDS011;57711;53.196;19.638;2023-05-10T12:17:48;16.20;;;2.90;;
68379;SDS011;57711;53.196;19.638;2023-05-10T12:20:17;11.30;;;2.90;;
68379;SDS011;57711;53.196;19.638;2023-05-10T12:22:47;8.50;;;2.20;;
68379;SDS011;57711;53.196;19.638;2023-05-10T12:25:17;4.00;;;2.50;;
68379;SDS011;57711;53.196;19.638;2023-05-10T12:27:48;15.90;;;2.20;;
68379;SDS011;57711;53.196;19.638;2023-05-10T12:30:19;10.80;;;2.70;;
68379;SDS011;57711;53.196;19.638;2023-05-10T12:32:47;13.90;;;3.20;;
68379;SDS011;57711;53.196;19.638;2023-05-10T12:35:15;6.00;;;2.20;;
68379;SDS011;57711;53.196;19.638;2023-05-10T12:37:43;8.30;;;2.10;;
68379;SDS011;57711;53.196;19.638;2023-05-10T12:40:10;7.60;;;2.00;;
68379;SDS011;57711;53.196;19.638;2023-05-10T12:42:38;10.70;;;2.50;;
68379;SDS011;57711;53.196;19.638;2023-05-10T12:45:07;8.30;;;2.30;;
68379;SDS011;57711;53.196;19.638;2023-05-10T12:47:35;7.10;;;1.90;;
68379;SDS011;57711;53.196;19.638;2023-05-10T12:50:03;9.40;;;2.00;;
68379;SDS011;57711;53.196;19.638;2023-05-10T12:52:31;10.70;;;2.10;;
68379;SDS011;57711;53.196;19.638;2023-05-10T12:54:59;15.60;;;2.70;;
68379;SDS011;57711;53.196;19.638;2023-05-10T12:57:26;11.50;;;2.50;;
68379;SDS011;57711;53.196;19.638;2023-05-10T12:59:54;7.60;;;2.00;;
68379;SDS011;57711;53.196;19.638;2023-05-10T13:02:22;7.40;;;1.60;;
68379;SDS011;57711;53.196;19.638;2023-05-10T13:04:50;12.40;;;2.40;;
68379;SDS011;57711;53.196;19.638;2023-05-10T13:07:17;4.60;;;2.10;;
68379;SDS011;57711;53.196;19.638;2023-05-10T13:09:44;9.10;;;2.50;;
68379;SDS011;57711;53.196;19.638;2023-05-10T13:12:12;6.10;;;2.50;;
68379;SDS011;57711;53.196;19.638;2023-05-10T13:14:39;9.60;;;2.30;;
68379;SDS011;57711;53.196;19.638;2023-05-10T13:17:07;6.80;;;2.10;;
68379;SDS011;57711;53.196;19.638;2023-05-10T13:19:34;9.00;;;2.40;;
68379;SDS011;57711;53.196;19.638;2023-05-10T13:22:02;11.00;;;1.90;;
68379;SDS011;57711;53.196;19.638;2023-05-10T13:24:29;22.70;;;2.90;;
68379;SDS011;57711;53.196;19.638;2023-05-10T13:26:57;7.90;;;2.60;;
68379;SDS011;57711;53.196;19.638;2023-05-10T13:29:25;6.90;;;2.10;;
68379;SDS011;57711;53.196;19.638;2023-05-10T13:31:52;5.40;;;2.20;;
68379;SDS011;57711;53.196;19.638;2023-05-10T13:34:20;14.80;;;2.30;;
68379;SDS011;57711;53.196;19.638;2023-05-10T13:36:51;7.80;;;3.20;;
68379;SDS011;57711;53.196;19.638;2023-05-10T13:39:20;12.20;;;3.80;;
68379;SDS011;57711;53.196;19.638;2023-05-10T13:41:47;10.70;;;2.50;;
68379;SDS011;57711;53.196;19.638;2023-05-10T13:44:14;15.10;;;4.00;;
68379;SDS011;57711;53.196;19.638;2023-05-10T13:46:42;14.40;;;5.20;;
68379;SDS011;57711;53.196;19.638;2023-05-10T13:49:10;16.40;;;4.00;;
68379;SDS011;57711;53.196;19.638;2023-05-10T13:51:37;13.30;;;5.20;;
68379;SDS011;57711;53.196;19.638;2023-05-10T13:54:05;12.90;;;5.20;;
68379;SDS011;57711;53.196;19.638;2023-05-10T13:56:32;14.80;;;4.20;;
68379;SDS011;57711;53.196;19.638;2023-05-10T13:59:00;14.40;;;3.70;;
68379;SDS011;57711;53.196;19.638;2023-05-10T14:01:27;15.10;;;4.20;;
68379;SDS011;57711;53.196;19.638;2023-05-10T14:03:54;16.30;;;4.80;;
68379;SDS011;57711;53.196;19.638;2023-05-10T14:06:22;16.60;;;3.50;;
68379;SDS011;57711;53.196;19.638;2023-05-10T14:08:49;7.60;;;2.70;;
68379;SDS011;57711;53.196;19.638;2023-05-10T14:11:16;16.30;;;4.30;;
68379;SDS011;57711;53.196;19.638;2023-05-10T14:13:44;8.50;;;3.10;;
68379;SDS011;57711;53.196;19.638;2023-05-10T14:16:11;11.30;;;3.30;;
68379;SDS011;57711;53.196;19.638;2023-05-10T14:18:39;9.50;;;2.50;;
68379;SDS011;57711;53.196;19.638;2023-05-10T14:21:06;10.20;;;3.30;;
68379;SDS011;57711;53.196;19.638;2023-05-10T14:23:33;10.20;;;2.40;;
68379;SDS011;57711;53.196;19.638;2023-05-10T14:26:01;9.40;;;3.20;;
68379;SDS011;57711;53.196;19.638;2023-05-10T14:28:28;8.60;;;3.70;;
68379;SDS011;57711;53.196;19.638;2023-05-10T14:30:56;8.90;;;3.50;;
68379;SDS011;57711;53.196;19.638;2023-05-10T14:33:23;27.80;;;4.00;;
68379;SDS011;57711;53.196;19.638;2023-05-10T14:35:50;9.10;;;3.10;;
68379;SDS011;57711;53.196;19.638;2023-05-10T14:38:17;14.80;;;4.20;;
68379;SDS011;57711;53.196;19.638;2023-05-10T14:40:45;8.90;;;2.90;;
68379;SDS011;57711;53.196;19.638;2023-05-10T14:43:12;13.20;;;2.30;;
68379;SDS011;57711;53.196;19.638;2023-05-10T14:45:39;17.90;;;3.70;;
68379;SDS011;57711;53.196;19.638;2023-05-10T14:48:07;21.50;;;4.10;;
68379;SDS011;57711;53.196;19.638;2023-05-10T14:50:38;8.10;;;2.80;;
68379;SDS011;57711;53.196;19.638;2023-05-10T14:53:06;12.20;;;2.60;;
68379;SDS011;57711;53.196;19.638;2023-05-10T14:55:33;8.90;;;2.50;;
68379;SDS011;57711;53.196;19.638;2023-05-10T14:58:02;11.00;;;2.40;;
68379;SDS011;57711;53.196;19.638;2023-05-10T15:00:30;9.70;;;2.40;;
68379;SDS011;57711;53.196;19.638;2023-05-10T15:02:58;11.00;;;3.10;;
68379;SDS011;57711;53.196;19.638;2023-05-10T15:05:26;11.90;;;2.50;;
68379;SDS011;57711;53.196;19.638;2023-05-10T15:07:53;7.90;;;3.10;;
68379;SDS011;57711;53.196;19.638;2023-05-10T15:10:21;15.40;;;2.90;;
68379;SDS011;57711;53.196;19.638;2023-05-10T15:12:49;19.30;;;4.50;;